createdAt,value
2019-04-26T00:00:48.082Z,8.10
2019-04-26T00:03:18.543Z,9.13
2019-04-26T00:05:47.483Z,8.08
2019-04-26T00:08:15.804Z,7.50
2019-04-26T00:18:20.971Z,8.63
2019-04-26T00:20:50.990Z,9.60
2019-04-26T00:23:22.629Z,9.37
2019-04-26T00:25:51.779Z,11.23
2019-04-26T00:28:21.190Z,9.90
2019-04-26T00:30:48.338Z,11.07
2019-04-26T00:33:15.853Z,12.63
2019-04-26T00:35:47.780Z,13.50
2019-04-26T00:38:11.615Z,9.93
2019-04-26T00:40:43.341Z,10.63
2019-04-26T00:43:12.868Z,10.83
2019-04-26T00:45:43.110Z,5.73
2019-04-26T00:48:14.002Z,7.08
2019-04-26T00:50:43.633Z,8.73
2019-04-26T00:53:13.311Z,10.57
2019-04-26T00:55:44.898Z,10.07
2019-04-26T00:58:14.923Z,6.67
2019-04-26T01:00:44.543Z,9.15
2019-04-26T01:03:16.628Z,6.28
2019-04-26T01:05:59.539Z,11.45
2019-04-26T01:08:19.247Z,10.83
2019-04-26T01:10:49.652Z,7.77
2019-04-26T01:13:17.849Z,7.25
2019-04-26T01:15:48.821Z,8.53
2019-04-26T01:18:16.862Z,5.27
2019-04-26T01:20:47.039Z,11.53
2019-04-26T01:23:14.428Z,9.38
2019-04-26T01:25:42.841Z,8.07
2019-04-26T01:28:15.222Z,11.48
2019-04-26T01:30:48.289Z,9.13
2019-04-26T01:33:18.729Z,7.50
2019-04-26T01:35:57.650Z,9.20
2019-04-26T01:41:12.102Z,10.43
2019-04-26T01:43:41.605Z,13.40
2019-04-26T01:46:09.508Z,8.37
2019-04-26T01:48:36.108Z,7.80
2019-04-26T01:51:05.612Z,8.03
2019-04-26T01:53:34.347Z,11.53
2019-04-26T01:56:04.622Z,9.17
2019-04-26T01:58:31.470Z,6.90
2019-04-26T02:01:01.186Z,7.50
2019-04-26T02:03:29.802Z,11.03
2019-04-26T02:05:59.405Z,7.63
2019-04-26T02:08:26.305Z,8.43
2019-04-26T02:10:53.127Z,8.40
2019-04-26T02:13:25.062Z,8.70
2019-04-26T02:15:52.803Z,10.03
2019-04-26T02:18:23.964Z,9.80
2019-04-26T02:20:53.692Z,5.83
2019-04-26T02:23:20.624Z,8.33
2019-04-26T02:25:48.016Z,9.97
2019-04-26T02:31:11.163Z,6.03
2019-04-26T02:33:40.182Z,8.20
2019-04-26T02:36:10.939Z,10.63
2019-04-26T02:38:39.844Z,7.63
2019-04-26T02:41:09.686Z,12.00
2019-04-26T02:43:37.325Z,11.67
2019-04-26T02:46:07.085Z,8.40
2019-04-26T02:48:37.959Z,8.53
2019-04-26T02:51:06.731Z,11.70
2019-04-26T02:53:38.669Z,10.40
2019-04-26T02:56:05.136Z,6.45
2019-04-26T02:58:35.948Z,11.27
2019-04-26T03:01:05.591Z,13.47
2019-04-26T03:03:37.645Z,12.67
2019-04-26T03:06:03.856Z,12.03
2019-04-26T03:08:31.877Z,11.03
2019-04-26T03:11:03.713Z,9.10
2019-04-26T03:13:32.184Z,8.47
2019-04-26T03:16:00.214Z,11.43
2019-04-26T03:18:26.940Z,12.97
2019-04-26T03:20:55.823Z,13.20
2019-04-26T03:23:23.489Z,6.67
2019-04-26T03:25:52.439Z,12.37
2019-04-26T03:28:21.829Z,10.07
2019-04-26T03:30:52.353Z,13.63
2019-04-26T03:33:19.179Z,10.48
2019-04-26T03:35:56.499Z,9.53
2019-04-26T03:38:14.436Z,9.55
2019-04-26T03:40:44.587Z,10.47
2019-04-26T03:43:14.212Z,13.23
2019-04-26T03:45:43.122Z,12.73
2019-04-26T03:48:09.680Z,14.50
2019-04-26T03:50:37.881Z,13.90
2019-04-26T03:53:04.957Z,7.27
2019-04-26T03:55:35.946Z,9.60
2019-04-26T03:58:04.896Z,9.37
2019-04-26T04:00:32.752Z,18.80
2019-04-26T04:02:59.849Z,12.10
2019-04-26T04:05:27.023Z,12.80
2019-04-26T04:07:59.108Z,10.30
2019-04-26T04:13:09.812Z,11.55
2019-04-26T04:15:41.902Z,10.50
2019-04-26T04:18:07.592Z,13.55
2019-04-26T04:20:34.173Z,13.60
2019-04-26T04:23:01.138Z,13.13
2019-04-26T04:25:28.776Z,10.57
2019-04-26T04:30:40.659Z,12.80
2019-04-26T04:33:12.217Z,13.27
2019-04-26T04:38:25.393Z,10.40
2019-04-26T04:40:53.421Z,11.77
2019-04-26T04:43:20.227Z,12.80
2019-04-26T04:45:49.655Z,17.37
2019-04-26T04:48:16.522Z,11.00
2019-04-26T04:50:44.931Z,11.97
2019-04-26T04:53:12.910Z,14.30
2019-04-26T04:55:39.733Z,8.60
2019-04-26T04:58:07.392Z,15.20
2019-04-26T05:00:35.028Z,13.23
2019-04-26T05:03:01.651Z,10.47
2019-04-26T05:05:28.722Z,16.15
2019-04-26T05:08:06.491Z,14.23
2019-04-26T05:10:28.521Z,14.65
2019-04-26T05:12:55.189Z,14.33
2019-04-26T05:15:21.831Z,16.73
2019-04-26T05:17:49.489Z,15.63
2019-04-26T05:20:16.634Z,11.50
2019-04-26T05:22:43.264Z,27.87
2019-04-26T05:25:09.853Z,14.80
2019-04-26T05:27:36.554Z,14.47
2019-04-26T05:30:03.531Z,14.63
2019-04-26T05:35:15.232Z,17.10
2019-04-26T05:37:41.818Z,15.20
2019-04-26T05:40:08.430Z,13.37
2019-04-26T05:42:35.385Z,16.90
2019-04-26T05:45:01.989Z,19.37
2019-04-26T05:50:13.487Z,18.47
2019-04-26T05:52:40.415Z,17.42
2019-04-26T05:55:07.018Z,13.03
2019-04-26T05:57:33.645Z,18.57
2019-04-26T06:00:01.099Z,16.90
2019-04-26T06:02:28.107Z,15.97
2019-04-26T06:04:55.474Z,13.40
2019-04-26T06:07:22.058Z,15.70
2019-04-26T06:09:50.325Z,17.10
2019-04-26T06:12:17.494Z,15.33
2019-04-26T06:14:44.694Z,18.67
2019-04-26T06:17:11.515Z,15.60
2019-04-26T06:19:38.318Z,13.57
2019-04-26T06:22:05.185Z,18.47
2019-04-26T06:24:32.157Z,11.97
2019-04-26T06:27:11.012Z,17.37
2019-04-26T06:29:27.350Z,12.57
2019-04-26T06:31:55.017Z,15.58
2019-04-26T06:34:22.988Z,16.53
2019-04-26T06:36:49.937Z,14.05
2019-04-26T06:39:20.470Z,20.37
2019-04-26T06:41:49.018Z,18.10
2019-04-26T06:44:22.143Z,16.37
2019-04-26T06:46:49.968Z,20.57
2019-04-26T06:49:24.014Z,20.17
2019-04-26T06:51:56.986Z,20.60
2019-04-26T06:54:32.824Z,19.17
2019-04-26T06:57:11.511Z,17.37
2019-04-26T06:59:36.421Z,20.20
2019-04-26T07:02:00.908Z,23.17
2019-04-26T07:04:30.338Z,20.47
2019-04-26T07:07:02.572Z,18.30
2019-04-26T07:12:15.916Z,15.13
2019-04-26T07:35:09.766Z,15.60
2019-04-26T07:37:48.143Z,20.20
2019-04-26T07:42:41.827Z,17.70
2019-04-26T07:45:12.468Z,17.93
2019-04-26T07:47:45.787Z,18.33
2019-04-26T07:50:12.688Z,15.23
2019-04-26T07:52:44.869Z,21.83
2019-04-26T07:55:12.887Z,21.47
2019-04-26T07:57:46.395Z,16.27
2019-04-26T08:28:50.636Z,19.63
2019-04-26T08:33:59.223Z,21.70
2019-04-26T08:46:47.506Z,25.10
2019-04-26T08:54:22.523Z,23.40
2019-04-26T08:56:51.392Z,21.90
2019-04-26T08:59:19.736Z,30.77
2019-04-26T09:01:50.029Z,35.30
2019-04-26T09:04:18.718Z,26.77
2019-04-26T09:06:45.449Z,20.57
2019-04-26T09:09:18.296Z,25.80
2019-04-26T09:11:59.079Z,23.47
2019-04-26T09:14:18.497Z,27.00
2019-04-26T09:16:50.508Z,26.07
2019-04-26T09:19:17.641Z,29.07
2019-04-26T09:21:47.520Z,34.93
2019-04-26T09:24:21.148Z,29.20
2019-04-26T09:26:48.458Z,30.13
2019-04-26T09:29:16.750Z,23.80
2019-04-26T09:31:45.127Z,25.30
2019-04-26T09:34:14.355Z,38.10
2019-04-26T09:36:40.947Z,33.70
2019-04-26T09:39:09.786Z,38.47
2019-04-26T09:41:39.451Z,28.30
2019-04-26T09:44:08.640Z,32.00
2019-04-26T09:46:35.606Z,34.20
2019-04-26T09:49:03.088Z,29.70
2019-04-26T09:51:34.775Z,31.87
2019-04-26T09:54:03.002Z,37.40
2019-04-26T09:56:33.535Z,37.67
2019-04-26T09:59:01.474Z,31.40
2019-04-26T10:01:30.885Z,35.40
2019-04-26T10:04:00.636Z,31.33
2019-04-26T10:12:01.062Z,31.07
2019-04-26T10:14:28.468Z,28.80
2019-04-26T10:16:56.333Z,35.13
2019-04-26T10:19:31.641Z,33.90
2019-04-26T10:22:00.739Z,27.20
2019-04-26T10:24:30.028Z,28.90
2019-04-26T10:27:03.306Z,24.80
2019-04-26T10:32:09.316Z,22.67
2019-04-26T10:34:38.096Z,29.60
2019-04-26T10:37:08.187Z,27.30
2019-04-26T10:39:37.047Z,30.93
2019-04-26T10:42:06.229Z,33.35
2019-04-26T10:44:35.843Z,20.57
2019-04-26T10:47:04.393Z,27.63
2019-04-26T10:49:34.658Z,30.23
2019-04-26T10:52:06.289Z,29.25
2019-04-26T10:54:36.804Z,32.08
2019-04-26T10:57:05.157Z,32.00
2019-04-26T10:59:39.908Z,36.83
2019-04-26T11:02:05.180Z,32.30
2019-04-26T11:04:32.007Z,34.40
2019-04-26T11:07:01.978Z,38.65
2019-04-26T11:09:27.638Z,34.03
2019-04-26T11:11:54.560Z,30.53
2019-04-26T11:14:22.608Z,41.08
2019-04-26T11:16:50.084Z,37.13
2019-04-26T11:19:16.963Z,37.20
2019-04-26T11:21:43.881Z,38.90
2019-04-26T11:24:11.102Z,38.23
2019-04-26T11:26:39.312Z,31.27
2019-04-26T11:29:06.229Z,39.07
2019-04-26T11:31:33.417Z,36.38
2019-04-26T11:34:05.518Z,33.20
2019-04-26T11:36:29.230Z,36.10
2019-04-26T11:38:56.097Z,42.17
2019-04-26T11:41:22.976Z,33.50
2019-04-26T11:43:52.871Z,36.77
2019-04-26T11:46:21.821Z,37.30
2019-04-26T11:48:58.554Z,32.47
2019-04-26T11:51:16.098Z,41.73
2019-04-26T11:53:44.950Z,40.40
2019-04-26T11:56:14.017Z,30.67
2019-04-26T11:58:40.810Z,28.47
2019-04-26T12:01:07.622Z,39.95
2019-04-26T12:03:34.814Z,35.50
2019-04-26T12:06:01.729Z,32.43
2019-04-26T12:08:28.594Z,32.73
2019-04-26T12:10:55.328Z,42.37
2019-04-26T12:13:25.098Z,31.00
2019-04-26T12:15:52.117Z,30.93
2019-04-26T12:18:19.005Z,34.17
2019-04-26T12:20:45.705Z,41.50
2019-04-26T12:23:13.570Z,29.97
2019-04-26T12:25:43.625Z,21.57
2019-04-26T12:28:10.169Z,26.40
2019-04-26T12:30:37.319Z,23.10
2019-04-26T12:33:07.269Z,26.87
2019-04-26T12:35:34.173Z,31.97
2019-04-26T12:38:01.056Z,26.27
2019-04-26T12:40:27.902Z,24.17
2019-04-26T12:42:54.767Z,32.90
2019-04-26T12:45:21.632Z,25.43
2019-04-26T12:47:48.787Z,27.65
2019-04-26T12:50:16.354Z,28.80
2019-04-26T12:52:42.994Z,24.70
2019-04-26T12:55:21.948Z,31.87
2019-04-26T13:02:55.713Z,29.97
2019-04-26T13:05:22.793Z,36.43
2019-04-26T13:07:49.731Z,27.00
2019-04-26T13:10:16.631Z,24.93
2019-04-26T13:12:43.516Z,22.73
2019-04-26T13:15:13.234Z,24.97
2019-04-26T13:17:39.450Z,31.73
2019-04-26T13:20:06.312Z,27.80
2019-04-26T13:22:45.341Z,25.95
2019-04-26T13:25:02.399Z,22.87
2019-04-26T13:27:29.293Z,28.93
2019-04-26T13:30:02.445Z,26.57
2019-04-26T13:32:24.722Z,24.13
2019-04-26T13:34:51.288Z,36.83
2019-04-26T13:37:18.217Z,20.20
2019-04-26T13:39:46.314Z,30.10
2019-04-26T13:42:13.614Z,25.53
2019-04-26T13:44:41.790Z,25.77
2019-04-26T13:47:09.578Z,26.50
2019-04-26T13:49:36.427Z,19.47
2019-04-26T13:52:03.312Z,20.97
2019-04-26T13:54:30.571Z,23.62
2019-04-26T13:56:57.465Z,33.33
2019-04-26T13:59:24.339Z,26.43
2019-04-26T14:01:51.254Z,29.82
2019-04-26T14:04:18.147Z,26.63
2019-04-26T14:06:44.998Z,31.17
2019-04-26T14:09:12.390Z,26.07
2019-04-26T14:11:39.283Z,25.73
2019-04-26T14:14:05.893Z,26.65
2019-04-26T14:16:32.850Z,28.03
2019-04-26T14:18:59.451Z,24.72
2019-04-26T14:21:29.252Z,23.23
2019-04-26T14:23:55.160Z,24.95
2019-04-26T14:26:22.111Z,22.83
2019-04-26T14:28:49.035Z,23.75
2019-04-26T14:31:16.751Z,23.23
2019-04-26T14:33:44.296Z,23.17
2019-04-26T14:36:17.622Z,21.57
2019-04-26T14:38:41.284Z,26.00
2019-04-26T14:41:08.392Z,22.83
2019-04-26T14:43:41.019Z,19.47
2019-04-26T14:46:04.495Z,16.65
2019-04-26T14:48:36.139Z,22.53
2019-04-26T14:51:07.866Z,17.60
2019-04-26T14:53:32.094Z,23.80
2019-04-26T14:55:57.569Z,20.27
2019-04-26T14:58:29.989Z,18.63
2019-04-26T15:00:55.913Z,23.40
2019-04-26T15:03:22.586Z,20.73
2019-04-26T15:05:50.057Z,25.97
2019-04-26T15:08:16.963Z,21.67
2019-04-26T15:10:48.762Z,23.07
2019-04-26T15:13:19.948Z,25.47
2019-04-26T15:15:42.369Z,20.33
2019-04-26T15:18:10.204Z,19.67
2019-04-26T15:20:37.097Z,28.13
2019-04-26T15:23:04.011Z,24.63
2019-04-26T15:25:31.816Z,13.60
2019-04-26T15:27:59.572Z,19.00
2019-04-26T15:32:58.848Z,15.63
2019-04-26T15:38:11.310Z,21.62
2019-04-26T15:40:38.159Z,17.33
2019-04-26T15:43:14.395Z,17.87
2019-04-26T15:45:38.795Z,18.33
2019-04-26T15:48:02.330Z,14.13
2019-04-26T15:50:29.293Z,16.80
2019-04-26T15:52:56.522Z,10.53
2019-04-26T15:55:23.681Z,18.12
2019-04-26T15:57:50.609Z,19.33
2019-04-26T16:00:17.557Z,16.73
2019-04-26T16:02:44.457Z,22.10
2019-04-26T16:05:12.357Z,18.23
2019-04-26T16:07:39.703Z,17.27
2019-04-26T16:10:06.616Z,20.77
2019-04-26T16:12:33.496Z,14.23
2019-04-26T16:15:02.300Z,18.77
2019-04-26T16:17:28.750Z,14.70
2019-04-26T16:19:56.065Z,15.13
2019-04-26T16:22:25.793Z,14.60
2019-04-26T16:24:53.199Z,15.40
2019-04-26T16:27:19.928Z,19.43
2019-04-26T16:29:50.820Z,13.18
2019-04-26T16:32:16.871Z,18.35
2019-04-26T16:34:47.635Z,14.30
2019-04-26T16:37:15.038Z,14.50
2019-04-26T16:39:43.316Z,14.40
2019-04-26T16:42:09.972Z,11.66
2019-04-26T16:44:36.958Z,10.10
2019-04-26T16:47:05.905Z,11.77
2019-04-26T16:52:05.546Z,10.10
2019-04-26T16:54:29.846Z,6.90
2019-04-26T16:56:59.117Z,7.70
2019-04-26T16:59:26.824Z,8.65
2019-04-26T17:00:45.500Z,12.33
2019-04-26T17:01:53.950Z,10.30
2019-04-26T17:04:28.682Z,9.80
2019-04-26T17:06:50.209Z,9.17
2019-04-26T17:09:17.103Z,9.80
2019-04-26T17:11:49.661Z,5.60
2019-04-26T17:14:16.632Z,7.10
2019-04-26T17:16:44.462Z,7.07
2019-04-26T17:19:11.912Z,7.90
2019-04-26T17:21:39.969Z,5.57
2019-04-26T17:24:09.606Z,5.83
2019-04-26T17:26:36.486Z,7.97
2019-04-26T17:29:03.741Z,6.83
2019-04-26T17:31:30.569Z,8.97
2019-04-26T17:33:57.474Z,6.90
2019-04-26T17:36:24.398Z,6.80
2019-04-26T17:38:51.288Z,8.50
2019-04-26T17:41:18.486Z,9.98
2019-04-26T17:43:47.418Z,5.77
2019-04-26T17:46:14.559Z,9.50
2019-04-26T17:48:44.875Z,5.47
2019-04-26T17:51:18.495Z,4.93
2019-04-26T17:53:40.187Z,4.23
2019-04-26T17:56:07.359Z,3.58
2019-04-26T17:58:49.199Z,6.55
2019-04-26T18:01:03.805Z,3.13
2019-04-26T18:03:32.539Z,4.15
2019-04-26T18:06:00.874Z,7.37
2019-04-26T18:08:38.692Z,4.20
2019-04-26T18:10:56.322Z,4.00
2019-04-26T18:13:23.117Z,6.60
2019-04-26T18:15:49.994Z,4.47
2019-04-26T18:18:18.271Z,4.33
2019-04-26T18:20:45.149Z,3.03
2019-04-26T18:23:15.423Z,3.10
2019-04-26T18:25:41.288Z,3.90
2019-04-26T18:28:13.255Z,2.77
2019-04-26T18:30:40.391Z,6.60
2019-04-26T18:33:06.749Z,2.93
2019-04-26T18:35:33.807Z,4.50
2019-04-26T18:38:00.658Z,4.83
2019-04-26T18:40:27.504Z,3.45
2019-04-26T18:42:55.100Z,6.10
2019-04-26T18:45:28.762Z,6.33
2019-04-26T18:47:50.348Z,3.27
2019-04-26T18:50:18.642Z,7.70
2019-04-26T18:52:45.650Z,3.37
2019-04-26T18:55:14.869Z,2.10
2019-04-26T18:57:43.022Z,3.73
2019-04-26T19:00:10.016Z,4.30
2019-04-26T19:02:36.905Z,5.63
2019-04-26T19:05:04.492Z,4.60
2019-04-26T19:07:32.678Z,4.13
2019-04-26T19:10:04.681Z,2.07
2019-04-26T19:12:28.473Z,2.33
2019-04-26T19:15:03.292Z,3.43
2019-04-26T19:17:26.185Z,3.00
2019-04-26T19:19:53.154Z,4.15
2019-04-26T19:22:22.542Z,4.10
2019-04-26T19:24:54.197Z,3.92
2019-04-26T19:27:22.386Z,4.28
2019-04-26T19:29:48.041Z,7.63
2019-04-26T19:32:15.924Z,4.40
2019-04-26T19:34:42.563Z,2.62
2019-04-26T19:37:10.809Z,5.28
2019-04-26T19:39:37.796Z,3.90
2019-04-26T19:42:06.283Z,6.60
2019-04-26T19:44:34.316Z,6.13
2019-04-26T19:47:06.537Z,2.45
2019-04-26T19:49:33.355Z,3.43
2019-04-26T19:52:03.718Z,2.42
2019-04-26T19:54:35.454Z,5.85
2019-04-26T19:57:01.078Z,8.63
2019-04-26T19:59:33.248Z,5.87
2019-04-26T20:01:57.835Z,7.10
2019-04-26T20:04:30.642Z,4.40
2019-04-26T20:06:55.419Z,5.20
2019-04-26T20:11:57.971Z,5.40
2019-04-26T20:14:25.807Z,4.10
2019-04-26T20:16:49.566Z,4.23
2019-04-26T20:19:17.979Z,3.50
2019-04-26T20:21:45.475Z,6.90
2019-04-26T20:24:13.552Z,4.35
2019-04-26T20:26:41.956Z,12.55
2019-04-26T20:34:10.968Z,4.80
2019-04-26T20:44:06.958Z,4.00
2019-04-26T20:46:36.011Z,3.95
2019-04-26T20:49:09.270Z,5.20
2019-04-26T20:51:32.347Z,5.55
2019-04-26T20:53:59.666Z,8.70
2019-04-26T20:56:27.543Z,5.80
2019-04-26T20:58:57.455Z,5.30
2019-04-26T21:01:23.876Z,5.33
2019-04-26T21:03:55.318Z,7.60
2019-04-26T21:16:15.849Z,3.67
2019-04-26T21:18:44.797Z,6.13
2019-04-26T21:21:12.137Z,7.85
2019-04-26T21:23:43.850Z,7.17
2019-04-26T21:26:16.474Z,5.33
2019-04-26T21:28:43.862Z,6.15
2019-04-26T21:31:12.522Z,3.85
2019-04-26T21:33:42.929Z,6.70
2019-04-26T21:36:11.157Z,3.62
2019-04-26T21:38:38.731Z,4.80
2019-04-26T21:41:11.449Z,7.27
2019-04-26T21:43:37.955Z,4.93
2019-04-26T21:46:08.328Z,4.73
2019-04-26T21:48:37.344Z,5.70
2019-04-26T21:51:14.400Z,5.47
2019-04-26T21:53:42.156Z,4.93
2019-04-26T21:56:07.449Z,4.78
2019-04-26T21:58:38.591Z,7.33
2019-04-26T22:01:05.485Z,7.25
2019-04-26T22:03:34.900Z,4.13
2019-04-26T22:06:04.161Z,6.93
2019-04-26T22:08:34.734Z,4.63
2019-04-26T22:11:03.565Z,7.37
2019-04-26T22:13:33.342Z,7.30
2019-04-26T22:16:00.694Z,4.77
2019-04-26T22:18:40.030Z,4.93
2019-04-26T22:21:07.827Z,5.13
2019-04-26T22:23:36.341Z,6.20
2019-04-26T22:26:08.617Z,2.63
2019-04-26T22:28:36.333Z,4.90
2019-04-26T22:31:08.546Z,4.40
2019-04-26T22:33:34.350Z,5.70
2019-04-26T22:36:04.766Z,5.17
2019-04-26T22:38:33.986Z,3.47
2019-04-26T22:41:02.936Z,3.50
2019-04-26T22:43:29.784Z,5.35
2019-04-26T22:46:02.955Z,5.73
2019-04-26T22:48:33.915Z,3.07
2019-04-26T22:50:59.659Z,6.93
2019-04-26T22:53:29.332Z,5.67
2019-04-26T22:56:01.399Z,2.67
2019-04-26T22:58:30.217Z,3.63
2019-04-26T23:01:03.471Z,5.23
2019-04-26T23:03:28.265Z,2.63
2019-04-26T23:05:55.117Z,3.17
2019-04-26T23:08:25.841Z,1.90
2019-04-26T23:10:53.136Z,3.03
2019-04-26T23:13:23.850Z,2.72
2019-04-26T23:15:52.677Z,2.60
2019-04-26T23:20:53.217Z,1.60
2019-04-26T23:26:12.660Z,2.03
2019-04-26T23:28:40.302Z,1.30
2019-04-26T23:31:08.294Z,0.90
2019-04-26T23:33:42.912Z,0.90
2019-04-26T23:36:08.982Z,1.57
2019-04-26T23:38:37.635Z,1.13
2019-04-26T23:41:07.270Z,1.53
2019-04-26T23:43:37.882Z,1.33
2019-04-26T23:46:05.805Z,1.13
2019-04-26T23:48:34.506Z,1.27
2019-04-26T23:51:05.069Z,0.90
2019-04-26T23:53:33.627Z,0.80
2019-04-26T23:56:03.601Z,2.33
2019-04-26T23:58:30.658Z,1.33
